sensor_id;sensor_type;location;lat;lon;timestamp;temperature;humidity
37530;DHT22;23374;52.758;6.872;2023-11-21T00:00:26;8.90;1.00
37530;DHT22;23374;52.758;6.872;2023-11-21T00:02:48;8.90;1.00
37530;DHT22;23374;52.758;6.872;2023-11-21T00:05:11;8.90;1.00
37530;DHT22;23374;52.758;6.872;2023-11-21T00:07:37;8.90;1.00
37530;DHT22;23374;52.758;6.872;2023-11-21T00:09:59;8.90;1.00
37530;DHT22;23374;52.758;6.872;2023-11-21T00:12:20;8.90;1.00
37530;DHT22;23374;52.758;6.872;2023-11-21T00:14:41;8.90;1.00
37530;DHT22;23374;52.758;6.872;2023-11-21T00:17:02;9.00;1.00
37530;DHT22;23374;52.758;6.872;2023-11-21T00:19:27;9.00;1.00
37530;DHT22;23374;52.758;6.872;2023-11-21T00:21:50;9.00;1.00
37530;DHT22;23374;52.758;6.872;2023-11-21T00:24:12;9.00;1.00
37530;DHT22;23374;52.758;6.872;2023-11-21T00:26:35;9.00;1.00
37530;DHT22;23374;52.758;6.872;2023-11-21T00:28:58;9.00;1.00
37530;DHT22;23374;52.758;6.872;2023-11-21T00:31:18;9.10;1.00
37530;DHT22;23374;52.758;6.872;2023-11-21T00:33:39;9.10;1.00
37530;DHT22;23374;52.758;6.872;2023-11-21T00:35:59;9.10;1.00
37530;DHT22;23374;52.758;6.872;2023-11-21T00:38:21;9.10;1.00
37530;DHT22;23374;52.758;6.872;2023-11-21T00:40:41;9.10;1.00
37530;DHT22;23374;52.758;6.872;2023-11-21T00:43:01;9.10;1.00
37530;DHT22;23374;52.758;6.872;2023-11-21T00:45:23;9.00;1.00
37530;DHT22;23374;52.758;6.872;2023-11-21T00:47:44;9.00;1.00
37530;DHT22;23374;52.758;6.872;2023-11-21T00:50:06;9.00;1.00
37530;DHT22;23374;52.758;6.872;2023-11-21T00:52:27;9.00;1.00
37530;DHT22;23374;52.758;6.872;2023-11-21T00:54:47;9.00;1.00
37530;DHT22;23374;52.758;6.872;2023-11-21T00:57:08;9.00;1.00
37530;DHT22;23374;52.758;6.872;2023-11-21T00:59:29;9.00;1.00
37530;DHT22;23374;52.758;6.872;2023-11-21T01:01:50;9.00;1.00
37530;DHT22;23374;52.758;6.872;2023-11-21T01:04:11;9.00;1.00
37530;DHT22;23374;52.758;6.872;2023-11-21T01:06:33;9.00;1.00
37530;DHT22;23374;52.758;6.872;2023-11-21T01:08:55;9.00;1.00
37530;DHT22;23374;52.758;6.872;2023-11-21T01:11:17;9.00;1.00
37530;DHT22;23374;52.758;6.872;2023-11-21T01:13:40;9.00;1.00
37530;DHT22;23374;52.758;6.872;2023-11-21T01:16:01;9.00;1.00
37530;DHT22;23374;52.758;6.872;2023-11-21T01:18:22;9.00;1.00
37530;DHT22;23374;52.758;6.872;2023-11-21T01:20:42;9.00;1.00
37530;DHT22;23374;52.758;6.872;2023-11-21T01:23:06;9.00;1.00
37530;DHT22;23374;52.758;6.872;2023-11-21T01:25:27;9.00;1.00
37530;DHT22;23374;52.758;6.872;2023-11-21T01:27:47;9.00;1.00
37530;DHT22;23374;52.758;6.872;2023-11-21T01:30:09;9.00;1.00
37530;DHT22;23374;52.758;6.872;2023-11-21T01:32:30;9.10;1.00
37530;DHT22;23374;52.758;6.872;2023-11-21T01:34:51;9.10;1.00
37530;DHT22;23374;52.758;6.872;2023-11-21T01:37:12;9.10;1.00
37530;DHT22;23374;52.758;6.872;2023-11-21T01:39:35;9.10;1.00
37530;DHT22;23374;52.758;6.872;2023-11-21T01:41:55;9.10;1.00
37530;DHT22;23374;52.758;6.872;2023-11-21T01:44:19;9.10;1.00
37530;DHT22;23374;52.758;6.872;2023-11-21T01:46:40;9.10;1.00
37530;DHT22;23374;52.758;6.872;2023-11-21T01:49:02;9.10;1.00
37530;DHT22;23374;52.758;6.872;2023-11-21T01:51:22;9.10;1.00
37530;DHT22;23374;52.758;6.872;2023-11-21T01:53:45;9.10;1.00
37530;DHT22;23374;52.758;6.872;2023-11-21T01:56:07;9.10;1.00
37530;DHT22;23374;52.758;6.872;2023-11-21T01:58:31;9.10;1.00
37530;DHT22;23374;52.758;6.872;2023-11-21T02:00:52;9.10;1.00
37530;DHT22;23374;52.758;6.872;2023-11-21T02:03:17;9.10;1.00
37530;DHT22;23374;52.758;6.872;2023-11-21T02:05:37;9.10;1.00
37530;DHT22;23374;52.758;6.872;2023-11-21T02:07:58;9.10;1.00
37530;DHT22;23374;52.758;6.872;2023-11-21T02:10:19;9.10;1.00
37530;DHT22;23374;52.758;6.872;2023-11-21T02:12:43;9.10;1.00
37530;DHT22;23374;52.758;6.872;2023-11-21T02:15:08;9.10;1.00
37530;DHT22;23374;52.758;6.872;2023-11-21T02:17:36;9.20;1.00
37530;DHT22;23374;52.758;6.872;2023-11-21T02:19:57;9.10;1.00
37530;DHT22;23374;52.758;6.872;2023-11-21T02:22:19;9.10;1.00
37530;DHT22;23374;52.758;6.872;2023-11-21T02:24:41;9.10;1.00
37530;DHT22;23374;52.758;6.872;2023-11-21T02:27:03;9.10;1.00
37530;DHT22;23374;52.758;6.872;2023-11-21T02:29:25;9.10;1.00
37530;DHT22;23374;52.758;6.872;2023-11-21T02:31:53;9.10;1.00
37530;DHT22;23374;52.758;6.872;2023-11-21T02:34:16;9.10;1.00
37530;DHT22;23374;52.758;6.872;2023-11-21T02:36:37;9.10;1.00
37530;DHT22;23374;52.758;6.872;2023-11-21T02:38:58;9.10;1.00
37530;DHT22;23374;52.758;6.872;2023-11-21T02:41:18;9.00;1.00
37530;DHT22;23374;52.758;6.872;2023-11-21T02:43:39;9.10;1.00
37530;DHT22;23374;52.758;6.872;2023-11-21T02:45:59;9.10;1.00
37530;DHT22;23374;52.758;6.872;2023-11-21T02:48:19;9.10;1.00
37530;DHT22;23374;52.758;6.872;2023-11-21T02:50:40;9.10;1.00
37530;DHT22;23374;52.758;6.872;2023-11-21T02:53:02;9.10;1.00
37530;DHT22;23374;52.758;6.872;2023-11-21T02:55:22;9.10;1.00
37530;DHT22;23374;52.758;6.872;2023-11-21T02:57:45;9.10;1.00
37530;DHT22;23374;52.758;6.872;2023-11-21T03:00:09;9.10;1.00
37530;DHT22;23374;52.758;6.872;2023-11-21T03:02:37;9.10;1.00
37530;DHT22;23374;52.758;6.872;2023-11-21T03:05:03;9.10;1.00
37530;DHT22;23374;52.758;6.872;2023-11-21T03:07:25;9.10;1.00
37530;DHT22;23374;52.758;6.872;2023-11-21T03:09:46;9.20;1.00
37530;DHT22;23374;52.758;6.872;2023-11-21T03:12:06;9.20;1.00
37530;DHT22;23374;52.758;6.872;2023-11-21T03:14:27;9.20;1.00
37530;DHT22;23374;52.758;6.872;2023-11-21T03:16:49;9.20;1.00
37530;DHT22;23374;52.758;6.872;2023-11-21T03:19:10;9.20;1.00
37530;DHT22;23374;52.758;6.872;2023-11-21T03:21:31;9.20;1.00
37530;DHT22;23374;52.758;6.872;2023-11-21T03:23:52;9.20;1.00
37530;DHT22;23374;52.758;6.872;2023-11-21T03:26:13;9.20;1.00
37530;DHT22;23374;52.758;6.872;2023-11-21T03:28:33;9.30;1.00
37530;DHT22;23374;52.758;6.872;2023-11-21T03:30:54;9.30;1.00
37530;DHT22;23374;52.758;6.872;2023-11-21T03:33:14;9.30;1.00
37530;DHT22;23374;52.758;6.872;2023-11-21T03:35:37;9.30;1.00
37530;DHT22;23374;52.758;6.872;2023-11-21T03:37:58;9.30;1.00
37530;DHT22;23374;52.758;6.872;2023-11-21T03:40:20;9.30;1.00
37530;DHT22;23374;52.758;6.872;2023-11-21T03:42:43;9.30;1.00
37530;DHT22;23374;52.758;6.872;2023-11-21T03:45:04;9.40;1.00
37530;DHT22;23374;52.758;6.872;2023-11-21T03:47:28;9.40;1.00
37530;DHT22;23374;52.758;6.872;2023-11-21T03:49:51;9.40;1.00
37530;DHT22;23374;52.758;6.872;2023-11-21T03:52:12;9.40;1.00
37530;DHT22;23374;52.758;6.872;2023-11-21T03:54:32;9.40;1.00
37530;DHT22;23374;52.758;6.872;2023-11-21T03:56:53;9.40;1.00
37530;DHT22;23374;52.758;6.872;2023-11-21T03:59:14;9.40;1.00
37530;DHT22;23374;52.758;6.872;2023-11-21T04:01:34;9.30;1.00
37530;DHT22;23374;52.758;6.872;2023-11-21T04:03:55;9.30;1.00
37530;DHT22;23374;52.758;6.872;2023-11-21T04:06:17;9.30;1.00
37530;DHT22;23374;52.758;6.872;2023-11-21T04:08:39;9.30;1.00
37530;DHT22;23374;52.758;6.872;2023-11-21T04:10:59;9.30;1.00
37530;DHT22;23374;52.758;6.872;2023-11-21T04:13:21;9.30;1.00
37530;DHT22;23374;52.758;6.872;2023-11-21T04:15:41;9.30;1.00
37530;DHT22;23374;52.758;6.872;2023-11-21T04:18:02;9.30;1.00
37530;DHT22;23374;52.758;6.872;2023-11-21T04:20:24;9.30;1.00
37530;DHT22;23374;52.758;6.872;2023-11-21T04:22:45;9.30;1.00
37530;DHT22;23374;52.758;6.872;2023-11-21T04:25:07;9.30;1.00
37530;DHT22;23374;52.758;6.872;2023-11-21T04:27:30;9.30;1.00
37530;DHT22;23374;52.758;6.872;2023-11-21T04:29:52;9.30;99.90
37530;DHT22;23374;52.758;6.872;2023-11-21T04:32:13;9.20;99.90
37530;DHT22;23374;52.758;6.872;2023-11-21T04:34:33;9.20;99.90
37530;DHT22;23374;52.758;6.872;2023-11-21T04:36:54;9.20;1.00
37530;DHT22;23374;52.758;6.872;2023-11-21T04:39:16;9.20;1.00
37530;DHT22;23374;52.758;6.872;2023-11-21T04:41:37;9.20;1.00
37530;DHT22;23374;52.758;6.872;2023-11-21T04:44:00;9.20;1.00
37530;DHT22;23374;52.758;6.872;2023-11-21T04:46:22;9.20;1.00
37530;DHT22;23374;52.758;6.872;2023-11-21T04:48:42;9.10;1.00
37530;DHT22;23374;52.758;6.872;2023-11-21T04:51:04;9.10;1.00
37530;DHT22;23374;52.758;6.872;2023-11-21T04:53:30;9.10;1.00
37530;DHT22;23374;52.758;6.872;2023-11-21T04:55:50;9.10;1.00
37530;DHT22;23374;52.758;6.872;2023-11-21T04:58:11;9.20;1.00
37530;DHT22;23374;52.758;6.872;2023-11-21T05:00:32;9.20;1.00
37530;DHT22;23374;52.758;6.872;2023-11-21T05:02:54;9.20;1.00
37530;DHT22;23374;52.758;6.872;2023-11-21T05:05:14;9.20;1.00
37530;DHT22;23374;52.758;6.872;2023-11-21T05:07:35;9.20;1.00
37530;DHT22;23374;52.758;6.872;2023-11-21T05:09:55;9.20;1.00
37530;DHT22;23374;52.758;6.872;2023-11-21T05:12:16;9.20;1.00
37530;DHT22;23374;52.758;6.872;2023-11-21T05:14:36;9.20;1.00
37530;DHT22;23374;52.758;6.872;2023-11-21T05:16:57;9.20;1.00
37530;DHT22;23374;52.758;6.872;2023-11-21T05:19:21;9.20;1.00
37530;DHT22;23374;52.758;6.872;2023-11-21T05:21:43;9.20;1.00
37530;DHT22;23374;52.758;6.872;2023-11-21T05:24:04;9.20;1.00
37530;DHT22;23374;52.758;6.872;2023-11-21T05:26:26;9.20;1.00
37530;DHT22;23374;52.758;6.872;2023-11-21T05:28:47;9.20;1.00
37530;DHT22;23374;52.758;6.872;2023-11-21T05:31:09;9.30;1.00
37530;DHT22;23374;52.758;6.872;2023-11-21T05:33:31;9.30;1.00
37530;DHT22;23374;52.758;6.872;2023-11-21T05:35:53;9.30;1.00
37530;DHT22;23374;52.758;6.872;2023-11-21T05:38:14;9.30;1.00
37530;DHT22;23374;52.758;6.872;2023-11-21T05:40:35;9.40;1.00
37530;DHT22;23374;52.758;6.872;2023-11-21T05:42:58;9.40;1.00
37530;DHT22;23374;52.758;6.872;2023-11-21T05:45:21;9.40;1.00
37530;DHT22;23374;52.758;6.872;2023-11-21T05:47:44;9.40;1.00
37530;DHT22;23374;52.758;6.872;2023-11-21T05:50:12;9.40;1.00
37530;DHT22;23374;52.758;6.872;2023-11-21T05:52:34;9.40;1.00
37530;DHT22;23374;52.758;6.872;2023-11-21T05:54:55;9.40;1.00
37530;DHT22;23374;52.758;6.872;2023-11-21T05:57:16;9.40;1.00
37530;DHT22;23374;52.758;6.872;2023-11-21T05:59:37;9.40;1.00
37530;DHT22;23374;52.758;6.872;2023-11-21T06:01:57;9.40;1.00
37530;DHT22;23374;52.758;6.872;2023-11-21T06:04:20;9.40;1.00
37530;DHT22;23374;52.758;6.872;2023-11-21T06:06:44;9.40;1.00
37530;DHT22;23374;52.758;6.872;2023-11-21T06:09:04;9.40;1.00
37530;DHT22;23374;52.758;6.872;2023-11-21T06:11:26;9.40;1.00
37530;DHT22;23374;52.758;6.872;2023-11-21T06:13:46;9.40;1.00
37530;DHT22;23374;52.758;6.872;2023-11-21T06:16:08;9.40;1.00
37530;DHT22;23374;52.758;6.872;2023-11-21T06:18:29;9.40;1.00
37530;DHT22;23374;52.758;6.872;2023-11-21T06:20:49;9.40;1.00
37530;DHT22;23374;52.758;6.872;2023-11-21T06:23:10;9.40;1.00
37530;DHT22;23374;52.758;6.872;2023-11-21T06:25:31;9.40;1.00
37530;DHT22;23374;52.758;6.872;2023-11-21T06:27:57;9.40;1.00
37530;DHT22;23374;52.758;6.872;2023-11-21T06:30:19;9.40;1.00
37530;DHT22;23374;52.758;6.872;2023-11-21T06:32:39;9.40;1.00
37530;DHT22;23374;52.758;6.872;2023-11-21T06:35:00;9.40;1.00
37530;DHT22;23374;52.758;6.872;2023-11-21T06:37:20;9.40;1.00
37530;DHT22;23374;52.758;6.872;2023-11-21T06:39:43;9.40;1.00
37530;DHT22;23374;52.758;6.872;2023-11-21T06:42:04;9.40;1.00
37530;DHT22;23374;52.758;6.872;2023-11-21T06:44:24;9.40;1.00
37530;DHT22;23374;52.758;6.872;2023-11-21T06:46:45;9.40;1.00
37530;DHT22;23374;52.758;6.872;2023-11-21T06:49:05;9.40;1.00
37530;DHT22;23374;52.758;6.872;2023-11-21T06:51:26;9.40;1.00
37530;DHT22;23374;52.758;6.872;2023-11-21T06:53:46;9.40;1.00
37530;DHT22;23374;52.758;6.872;2023-11-21T06:56:19;9.40;1.00
37530;DHT22;23374;52.758;6.872;2023-11-21T06:58:39;9.40;1.00
37530;DHT22;23374;52.758;6.872;2023-11-21T07:01:01;9.40;1.00
37530;DHT22;23374;52.758;6.872;2023-11-21T07:03:21;9.40;1.00
37530;DHT22;23374;52.758;6.872;2023-11-21T07:05:41;9.40;1.00
37530;DHT22;23374;52.758;6.872;2023-11-21T07:08:02;9.40;1.00
37530;DHT22;23374;52.758;6.872;2023-11-21T07:10:24;9.40;1.00
37530;DHT22;23374;52.758;6.872;2023-11-21T07:12:44;9.40;1.00
37530;DHT22;23374;52.758;6.872;2023-11-21T07:15:07;9.40;1.00
37530;DHT22;23374;52.758;6.872;2023-11-21T07:17:29;9.40;1.00
37530;DHT22;23374;52.758;6.872;2023-11-21T07:19:49;9.40;1.00
37530;DHT22;23374;52.758;6.872;2023-11-21T07:22:10;9.30;1.00
37530;DHT22;23374;52.758;6.872;2023-11-21T07:24:30;9.30;1.00
37530;DHT22;23374;52.758;6.872;2023-11-21T07:26:51;9.30;1.00
37530;DHT22;23374;52.758;6.872;2023-11-21T07:29:16;9.40;1.00
37530;DHT22;23374;52.758;6.872;2023-11-21T07:31:37;9.30;1.00
37530;DHT22;23374;52.758;6.872;2023-11-21T07:33:58;9.30;1.00
37530;DHT22;23374;52.758;6.872;2023-11-21T07:36:19;9.30;1.00
37530;DHT22;23374;52.758;6.872;2023-11-21T07:38:42;9.30;1.00
37530;DHT22;23374;52.758;6.872;2023-11-21T07:41:04;9.30;1.00
37530;DHT22;23374;52.758;6.872;2023-11-21T07:43:24;9.30;1.00
37530;DHT22;23374;52.758;6.872;2023-11-21T07:45:46;9.40;1.00
37530;DHT22;23374;52.758;6.872;2023-11-21T07:48:12;9.40;1.00
37530;DHT22;23374;52.758;6.872;2023-11-21T07:50:32;9.40;1.00
37530;DHT22;23374;52.758;6.872;2023-11-21T07:52:53;9.40;1.00
37530;DHT22;23374;52.758;6.872;2023-11-21T07:55:15;9.40;1.00
37530;DHT22;23374;52.758;6.872;2023-11-21T07:57:35;9.40;1.00
37530;DHT22;23374;52.758;6.872;2023-11-21T07:59:55;9.40;1.00
37530;DHT22;23374;52.758;6.872;2023-11-21T08:02:16;9.40;1.00
37530;DHT22;23374;52.758;6.872;2023-11-21T08:04:38;9.40;1.00
37530;DHT22;23374;52.758;6.872;2023-11-21T08:06:58;9.40;1.00
37530;DHT22;23374;52.758;6.872;2023-11-21T08:09:18;9.50;1.00
37530;DHT22;23374;52.758;6.872;2023-11-21T08:11:39;9.50;1.00
37530;DHT22;23374;52.758;6.872;2023-11-21T08:13:59;9.50;1.00
37530;DHT22;23374;52.758;6.872;2023-11-21T08:16:20;9.50;1.00
37530;DHT22;23374;52.758;6.872;2023-11-21T08:18:41;9.50;1.00
37530;DHT22;23374;52.758;6.872;2023-11-21T08:21:02;9.60;1.00
37530;DHT22;23374;52.758;6.872;2023-11-21T08:23:24;9.60;1.00
37530;DHT22;23374;52.758;6.872;2023-11-21T08:25:45;9.60;1.00
37530;DHT22;23374;52.758;6.872;2023-11-21T08:28:06;9.60;1.00
37530;DHT22;23374;52.758;6.872;2023-11-21T08:30:26;9.70;1.00
37530;DHT22;23374;52.758;6.872;2023-11-21T08:32:50;9.70;1.00
37530;DHT22;23374;52.758;6.872;2023-11-21T08:35:12;9.70;8.70
37530;DHT22;23374;52.758;6.872;2023-11-21T08:37:32;9.80;1.00
37530;DHT22;23374;52.758;6.872;2023-11-21T08:39:58;9.80;1.00
37530;DHT22;23374;52.758;6.872;2023-11-21T08:42:22;9.80;1.00
37530;DHT22;23374;52.758;6.872;2023-11-21T08:44:43;9.80;1.00
37530;DHT22;23374;52.758;6.872;2023-11-21T08:47:03;9.80;1.00
37530;DHT22;23374;52.758;6.872;2023-11-21T08:49:24;9.90;1.00
37530;DHT22;23374;52.758;6.872;2023-11-21T08:51:47;9.90;1.00
37530;DHT22;23374;52.758;6.872;2023-11-21T08:54:07;9.80;1.00
37530;DHT22;23374;52.758;6.872;2023-11-21T08:56:28;9.80;1.00
37530;DHT22;23374;52.758;6.872;2023-11-21T08:58:48;9.80;1.00
37530;DHT22;23374;52.758;6.872;2023-11-21T09:01:10;9.80;1.00
37530;DHT22;23374;52.758;6.872;2023-11-21T09:03:32;9.80;1.00
37530;DHT22;23374;52.758;6.872;2023-11-21T09:05:53;9.70;1.00
37530;DHT22;23374;52.758;6.872;2023-11-21T09:08:14;9.80;1.00
37530;DHT22;23374;52.758;6.872;2023-11-21T09:10:34;9.80;1.00
37530;DHT22;23374;52.758;6.872;2023-11-21T09:12:59;9.70;1.00
37530;DHT22;23374;52.758;6.872;2023-11-21T09:15:20;9.70;1.00
37530;DHT22;23374;52.758;6.872;2023-11-21T09:17:40;9.70;1.00
37530;DHT22;23374;52.758;6.872;2023-11-21T09:20:01;9.60;1.00
37530;DHT22;23374;52.758;6.872;2023-11-21T09:22:24;9.60;1.00
37530;DHT22;23374;52.758;6.872;2023-11-21T09:24:50;9.60;1.00
37530;DHT22;23374;52.758;6.872;2023-11-21T09:27:11;9.60;1.00
37530;DHT22;23374;52.758;6.872;2023-11-21T09:29:31;9.60;1.00
37530;DHT22;23374;52.758;6.872;2023-11-21T09:31:55;9.50;1.00
37530;DHT22;23374;52.758;6.872;2023-11-21T09:34:19;9.40;1.00
37530;DHT22;23374;52.758;6.872;2023-11-21T09:36:39;9.40;1.00
37530;DHT22;23374;52.758;6.872;2023-11-21T09:38:59;9.40;1.00
37530;DHT22;23374;52.758;6.872;2023-11-21T09:41:46;9.40;1.00
37530;DHT22;23374;52.758;6.872;2023-11-21T09:44:11;9.30;1.00
37530;DHT22;23374;52.758;6.872;2023-11-21T09:46:33;9.30;1.00
37530;DHT22;23374;52.758;6.872;2023-11-21T09:48:54;9.30;1.00
37530;DHT22;23374;52.758;6.872;2023-11-21T09:51:19;9.30;1.00
37530;DHT22;23374;52.758;6.872;2023-11-21T09:53:43;9.30;1.00
37530;DHT22;23374;52.758;6.872;2023-11-21T09:56:06;9.30;1.00
37530;DHT22;23374;52.758;6.872;2023-11-21T09:58:27;9.30;1.00
37530;DHT22;23374;52.758;6.872;2023-11-21T10:00:48;9.30;1.00
37530;DHT22;23374;52.758;6.872;2023-11-21T10:03:11;9.30;1.00
37530;DHT22;23374;52.758;6.872;2023-11-21T10:05:32;9.30;1.00
37530;DHT22;23374;52.758;6.872;2023-11-21T10:07:56;9.30;1.00
37530;DHT22;23374;52.758;6.872;2023-11-21T10:10:19;9.40;1.00
37530;DHT22;23374;52.758;6.872;2023-11-21T10:12:42;9.40;1.00
37530;DHT22;23374;52.758;6.872;2023-11-21T10:15:08;9.40;1.00
37530;DHT22;23374;52.758;6.872;2023-11-21T10:17:32;9.40;1.00
37530;DHT22;23374;52.758;6.872;2023-11-21T10:19:59;9.40;1.00
37530;DHT22;23374;52.758;6.872;2023-11-21T10:22:20;9.40;1.00
37530;DHT22;23374;52.758;6.872;2023-11-21T10:24:42;9.40;1.00
37530;DHT22;23374;52.758;6.872;2023-11-21T10:27:04;9.30;99.90
37530;DHT22;23374;52.758;6.872;2023-11-21T10:29:28;9.30;1.00
37530;DHT22;23374;52.758;6.872;2023-11-21T10:31:50;9.30;1.00
37530;DHT22;23374;52.758;6.872;2023-11-21T10:34:19;9.30;1.00
37530;DHT22;23374;52.758;6.872;2023-11-21T10:36:40;9.30;99.90
37530;DHT22;23374;52.758;6.872;2023-11-21T10:39:01;9.40;99.90
37530;DHT22;23374;52.758;6.872;2023-11-21T10:41:22;9.40;99.90
37530;DHT22;23374;52.758;6.872;2023-11-21T10:43:43;9.40;99.90
37530;DHT22;23374;52.758;6.872;2023-11-21T10:46:05;9.40;99.90
37530;DHT22;23374;52.758;6.872;2023-11-21T10:48:25;9.40;99.90
37530;DHT22;23374;52.758;6.872;2023-11-21T10:50:48;9.40;99.90
37530;DHT22;23374;52.758;6.872;2023-11-21T10:53:09;9.30;1.00
37530;DHT22;23374;52.758;6.872;2023-11-21T10:55:31;9.40;2.50
37530;DHT22;23374;52.758;6.872;2023-11-21T10:57:53;9.40;1.00
37530;DHT22;23374;52.758;6.872;2023-11-21T11:00:16;9.40;1.00
37530;DHT22;23374;52.758;6.872;2023-11-21T11:02:39;9.30;1.00
37530;DHT22;23374;52.758;6.872;2023-11-21T11:05:00;9.40;1.00
37530;DHT22;23374;52.758;6.872;2023-11-21T11:07:24;9.30;1.00
37530;DHT22;23374;52.758;6.872;2023-11-21T11:09:45;9.30;99.90
37530;DHT22;23374;52.758;6.872;2023-11-21T11:12:08;9.30;99.90
37530;DHT22;23374;52.758;6.872;2023-11-21T11:14:30;9.30;99.90
37530;DHT22;23374;52.758;6.872;2023-11-21T11:16:54;9.40;99.90
37530;DHT22;23374;52.758;6.872;2023-11-21T11:19:16;9.40;1.00
37530;DHT22;23374;52.758;6.872;2023-11-21T11:29:08;9.30;1.00
37530;DHT22;23374;52.758;6.872;2023-11-21T11:32:54;9.40;1.00
37530;DHT22;23374;52.758;6.872;2023-11-21T11:35:38;9.40;1.00
37530;DHT22;23374;52.758;6.872;2023-11-21T11:38:03;9.50;1.00
37530;DHT22;23374;52.758;6.872;2023-11-21T11:40:41;9.50;1.00
37530;DHT22;23374;52.758;6.872;2023-11-21T11:43:06;9.40;1.00
37530;DHT22;23374;52.758;6.872;2023-11-21T11:45:33;9.40;99.90
37530;DHT22;23374;52.758;6.872;2023-11-21T11:48:00;9.30;99.90
37530;DHT22;23374;52.758;6.872;2023-11-21T11:50:20;9.30;99.90
37530;DHT22;23374;52.758;6.872;2023-11-21T11:52:43;9.30;1.00
37530;DHT22;23374;52.758;6.872;2023-11-21T11:55:07;9.30;99.90
37530;DHT22;23374;52.758;6.872;2023-11-21T11:57:31;9.20;1.00
37530;DHT22;23374;52.758;6.872;2023-11-21T12:00:54;9.30;99.90
37530;DHT22;23374;52.758;6.872;2023-11-21T12:03:16;9.30;99.90
37530;DHT22;23374;52.758;6.872;2023-11-21T12:05:37;9.40;1.00
37530;DHT22;23374;52.758;6.872;2023-11-21T12:08:04;9.40;1.00
37530;DHT22;23374;52.758;6.872;2023-11-21T12:10:30;9.40;99.90
37530;DHT22;23374;52.758;6.872;2023-11-21T12:12:53;9.40;99.90
37530;DHT22;23374;52.758;6.872;2023-11-21T12:15:13;9.40;99.90
37530;DHT22;23374;52.758;6.872;2023-11-21T12:17:34;9.40;99.90
37530;DHT22;23374;52.758;6.872;2023-11-21T12:20:02;9.40;1.00
37530;DHT22;23374;52.758;6.872;2023-11-21T12:22:24;9.40;1.00
37530;DHT22;23374;52.758;6.872;2023-11-21T12:24:44;9.40;99.90
37530;DHT22;23374;52.758;6.872;2023-11-21T12:27:05;9.40;99.90
37530;DHT22;23374;52.758;6.872;2023-11-21T12:29:25;9.40;99.90
37530;DHT22;23374;52.758;6.872;2023-11-21T12:31:48;9.50;99.90
37530;DHT22;23374;52.758;6.872;2023-11-21T12:34:09;9.40;1.00
37530;DHT22;23374;52.758;6.872;2023-11-21T12:36:31;9.40;17.80
37530;DHT22;23374;52.758;6.872;2023-11-21T12:38:52;9.40;1.00
37530;DHT22;23374;52.758;6.872;2023-11-21T12:41:12;9.40;35.30
37530;DHT22;23374;52.758;6.872;2023-11-21T12:43:33;9.40;57.40
37530;DHT22;23374;52.758;6.872;2023-11-21T12:46:11;9.40;99.90
37530;DHT22;23374;52.758;6.872;2023-11-21T12:48:33;9.40;1.00
37530;DHT22;23374;52.758;6.872;2023-11-21T12:50:55;9.40;1.00
37530;DHT22;23374;52.758;6.872;2023-11-21T12:53:15;9.50;99.90
37530;DHT22;23374;52.758;6.872;2023-11-21T12:55:39;9.50;99.90
37530;DHT22;23374;52.758;6.872;2023-11-21T12:58:02;9.40;97.90
37530;DHT22;23374;52.758;6.872;2023-11-21T13:00:48;9.50;99.90
37530;DHT22;23374;52.758;6.872;2023-11-21T13:03:11;9.50;99.90
37530;DHT22;23374;52.758;6.872;2023-11-21T13:05:37;9.50;11.30
37530;DHT22;23374;52.758;6.872;2023-11-21T13:08:08;9.50;52.50
37530;DHT22;23374;52.758;6.872;2023-11-21T13:10:31;9.50;99.90
37530;DHT22;23374;52.758;6.872;2023-11-21T13:12:52;9.50;99.90
37530;DHT22;23374;52.758;6.872;2023-11-21T13:15:16;9.50;99.90
37530;DHT22;23374;52.758;6.872;2023-11-21T13:17:38;9.40;1.00
37530;DHT22;23374;52.758;6.872;2023-11-21T13:19:58;9.50;99.90
37530;DHT22;23374;52.758;6.872;2023-11-21T13:22:21;9.40;95.90
37530;DHT22;23374;52.758;6.872;2023-11-21T13:24:41;9.40;99.90
37530;DHT22;23374;52.758;6.872;2023-11-21T13:27:02;9.30;1.00
37530;DHT22;23374;52.758;6.872;2023-11-21T13:29:22;9.30;1.00
37530;DHT22;23374;52.758;6.872;2023-11-21T13:31:43;9.30;1.00
37530;DHT22;23374;52.758;6.872;2023-11-21T13:34:03;9.20;1.00
37530;DHT22;23374;52.758;6.872;2023-11-21T13:36:28;9.10;1.00
37530;DHT22;23374;52.758;6.872;2023-11-21T13:38:52;9.10;1.00
37530;DHT22;23374;52.758;6.872;2023-11-21T13:41:15;9.10;1.00
37530;DHT22;23374;52.758;6.872;2023-11-21T13:43:38;9.20;10.00
37530;DHT22;23374;52.758;6.872;2023-11-21T13:45:58;9.10;1.00
37530;DHT22;23374;52.758;6.872;2023-11-21T13:48:21;9.10;1.00
37530;DHT22;23374;52.758;6.872;2023-11-21T13:50:48;9.10;1.00
37530;DHT22;23374;52.758;6.872;2023-11-21T13:53:15;9.10;1.00
37530;DHT22;23374;52.758;6.872;2023-11-21T13:55:45;9.10;1.00
37530;DHT22;23374;52.758;6.872;2023-11-21T13:58:06;9.10;99.90
37530;DHT22;23374;52.758;6.872;2023-11-21T14:00:30;9.10;17.60
37530;DHT22;23374;52.758;6.872;2023-11-21T14:03:05;9.10;1.00
37530;DHT22;23374;52.758;6.872;2023-11-21T14:05:31;9.00;50.20
37530;DHT22;23374;52.758;6.872;2023-11-21T14:07:53;9.00;1.00
37530;DHT22;23374;52.758;6.872;2023-11-21T14:10:15;9.00;1.00
37530;DHT22;23374;52.758;6.872;2023-11-21T14:12:42;9.00;8.20
37530;DHT22;23374;52.758;6.872;2023-11-21T14:15:03;9.00;1.00
37530;DHT22;23374;52.758;6.872;2023-11-21T14:17:26;8.90;1.00
37530;DHT22;23374;52.758;6.872;2023-11-21T14:19:48;9.00;85.00
37530;DHT22;23374;52.758;6.872;2023-11-21T14:22:12;9.00;99.90
37530;DHT22;23374;52.758;6.872;2023-11-21T14:24:33;9.00;95.50
37530;DHT22;23374;52.758;6.872;2023-11-21T14:26:53;9.00;90.50
37530;DHT22;23374;52.758;6.872;2023-11-21T14:29:14;9.00;1.00
37530;DHT22;23374;52.758;6.872;2023-11-21T14:31:39;9.00;1.00
37530;DHT22;23374;52.758;6.872;2023-11-21T14:34:01;9.00;1.00
37530;DHT22;23374;52.758;6.872;2023-11-21T14:36:22;8.90;1.00
37530;DHT22;23374;52.758;6.872;2023-11-21T14:38:44;8.90;1.00
37530;DHT22;23374;52.758;6.872;2023-11-21T14:41:05;8.90;1.00
37530;DHT22;23374;52.758;6.872;2023-11-21T14:43:28;9.00;66.60
37530;DHT22;23374;52.758;6.872;2023-11-21T14:45:50;9.00;92.20
37530;DHT22;23374;52.758;6.872;2023-11-21T14:48:11;9.00;99.90
37530;DHT22;23374;52.758;6.872;2023-11-21T14:50:49;9.00;99.90
37530;DHT22;23374;52.758;6.872;2023-11-21T14:53:46;9.00;1.00
37530;DHT22;23374;52.758;6.872;2023-11-21T14:56:13;9.00;1.00
37530;DHT22;23374;52.758;6.872;2023-11-21T14:58:43;8.90;29.50
37530;DHT22;23374;52.758;6.872;2023-11-21T15:01:03;9.00;99.90
37530;DHT22;23374;52.758;6.872;2023-11-21T15:03:28;9.00;99.90
37530;DHT22;23374;52.758;6.872;2023-11-21T15:06:07;8.90;99.90
37530;DHT22;23374;52.758;6.872;2023-11-21T15:08:57;8.90;99.90
37530;DHT22;23374;52.758;6.872;2023-11-21T15:12:48;8.90;99.90
37530;DHT22;23374;52.758;6.872;2023-11-21T15:15:09;8.90;99.90
37530;DHT22;23374;52.758;6.872;2023-11-21T15:17:30;8.90;98.00
37530;DHT22;23374;52.758;6.872;2023-11-21T15:19:53;8.80;99.90
37530;DHT22;23374;52.758;6.872;2023-11-21T15:22:13;8.80;99.90
37530;DHT22;23374;52.758;6.872;2023-11-21T15:24:36;8.80;99.90
37530;DHT22;23374;52.758;6.872;2023-11-21T15:26:56;8.80;99.90
37530;DHT22;23374;52.758;6.872;2023-11-21T15:29:17;8.80;82.90
37530;DHT22;23374;52.758;6.872;2023-11-21T15:31:38;8.80;99.90
37530;DHT22;23374;52.758;6.872;2023-11-21T15:34:01;8.80;97.70
37530;DHT22;23374;52.758;6.872;2023-11-21T15:36:22;8.70;40.20
37530;DHT22;23374;52.758;6.872;2023-11-21T15:38:43;8.70;85.90